createdAt,value
2016-09-25T00:00:30.545Z,1013.4
2016-09-25T00:01:30.473Z,1013.44
2016-09-25T00:02:30.556Z,1013.46
2016-09-25T00:03:30.436Z,1013.41
2016-09-25T00:04:30.483Z,1013.49
2016-09-25T00:05:30.408Z,1013.46
2016-09-25T00:06:30.402Z,1013.49
2016-09-25T00:07:30.377Z,1013.43
2016-09-25T00:08:30.412Z,1013.47
2016-09-25T00:09:30.349Z,1013.44
2016-09-25T00:10:30.335Z,1013.41
2016-09-25T00:11:30.313Z,1013.45
2016-09-25T00:12:30.309Z,1013.45
2016-09-25T00:13:30.286Z,1013.4
2016-09-25T00:14:30.266Z,1013.43
2016-09-25T00:15:30.259Z,1013.41
2016-09-25T00:16:30.245Z,1013.42
2016-09-25T00:17:30.226Z,1013.41
2016-09-25T00:18:30.209Z,1013.41
2016-09-25T00:19:30.211Z,1013.41
2016-09-25T00:20:30.178Z,1013.36
2016-09-25T00:21:30.168Z,1013.45
2016-09-25T00:22:30.148Z,1013.43
2016-09-25T00:23:30.136Z,1013.4
2016-09-25T00:24:30.114Z,1013.4
2016-09-25T00:25:30.099Z,1013.43
2016-09-25T00:26:30.085Z,1013.41
2016-09-25T00:27:30.075Z,1013.42
2016-09-25T00:28:30.057Z,1013.43
2016-09-25T00:29:30.037Z,1013.44
2016-09-25T00:30:30.021Z,1013.4
2016-09-25T00:31:30.006Z,1013.41
2016-09-25T00:32:29.990Z,1013.4
2016-09-25T00:33:29.979Z,1013.42
2016-09-25T00:34:29.958Z,1013.44
2016-09-25T00:35:29.949Z,1013.38
2016-09-25T00:36:29.928Z,1013.4
2016-09-25T00:37:29.912Z,1013.39
2016-09-25T00:38:29.909Z,1013.4
2016-09-25T00:39:29.885Z,1013.36
2016-09-25T00:40:29.867Z,1013.37
2016-09-25T00:41:29.852Z,1013.38
2016-09-25T00:42:29.834Z,1013.37
2016-09-25T00:43:29.818Z,1013.36
2016-09-25T00:44:29.807Z,1013.38
2016-09-25T00:45:29.787Z,1013.38
2016-09-25T00:46:29.774Z,1013.31
2016-09-25T00:47:29.757Z,1013.35
2016-09-25T00:48:29.741Z,1013.35
2016-09-25T00:49:29.727Z,1013.37
2016-09-25T00:50:29.712Z,1013.34
2016-09-25T00:51:29.695Z,1013.34
2016-09-25T00:52:29.679Z,1013.33
2016-09-25T00:53:29.661Z,1013.34
2016-09-25T00:54:29.646Z,1013.36
2016-09-25T00:55:29.638Z,1013.34
2016-09-25T00:56:29.617Z,1013.32
2016-09-25T00:57:29.605Z,1013.3
2016-09-25T00:58:29.585Z,1013.29
2016-09-25T00:59:29.567Z,1013.32
2016-09-25T01:00:29.550Z,1013.29
2016-09-25T01:01:29.538Z,1013.29
2016-09-25T01:02:29.525Z,1013.29
2016-09-25T01:03:29.511Z,1013.28
2016-09-25T01:04:29.484Z,1013.26
2016-09-25T01:05:29.473Z,1013.23
2016-09-25T01:06:29.454Z,1013.23
2016-09-25T01:07:29.439Z,1013.22
2016-09-25T01:08:29.425Z,1013.19
2016-09-25T01:09:29.416Z,1013.19
2016-09-25T01:10:29.393Z,1013.18
2016-09-25T01:11:29.377Z,1013.17
2016-09-25T01:12:29.364Z,1013.18
2016-09-25T01:13:29.345Z,1013.15
2016-09-25T01:14:29.335Z,1013.14
2016-09-25T01:15:29.315Z,1013.11
2016-09-25T01:16:29.303Z,1013.12
2016-09-25T01:17:29.284Z,1013.08
2016-09-25T01:18:29.265Z,1013.09
2016-09-25T01:19:29.250Z,1013.05
2016-09-25T01:20:29.233Z,1013.05
2016-09-25T01:21:29.219Z,1013.02
2016-09-25T01:22:29.206Z,1013.02
2016-09-25T01:23:29.185Z,1013.03
2016-09-25T01:24:29.175Z,1012.98
2016-09-25T01:25:29.154Z,1012.96
2016-09-25T01:26:29.147Z,1012.95
2016-09-25T01:27:29.127Z,1012.95
2016-09-25T01:28:29.105Z,1012.97
2016-09-25T01:29:29.095Z,1012.96
2016-09-25T01:30:29.071Z,1012.94
2016-09-25T01:31:29.060Z,1012.93
2016-09-25T01:32:29.044Z,1012.92
2016-09-25T01:33:29.027Z,1012.91
2016-09-25T01:34:29.010Z,1012.89
2016-09-25T01:35:28.993Z,1012.87
2016-09-25T01:36:28.979Z,1012.86
2016-09-25T01:37:28.976Z,1012.88
2016-09-25T01:38:28.947Z,1012.85
2016-09-25T01:39:28.932Z,1012.84
2016-09-25T01:40:28.915Z,1012.84
2016-09-25T01:41:28.907Z,1012.8
2016-09-25T01:42:28.881Z,1012.81
2016-09-25T01:43:28.868Z,1012.8
2016-09-25T01:44:28.851Z,1012.77
2016-09-25T01:45:28.833Z,1012.78
2016-09-25T01:46:28.818Z,1012.81
2016-09-25T01:47:28.802Z,1012.79
2016-09-25T01:48:28.784Z,1012.78
2016-09-25T01:49:28.777Z,1012.77
2016-09-25T01:50:28.753Z,1012.81
2016-09-25T01:51:28.743Z,1012.75
2016-09-25T01:52:28.727Z,1012.76
2016-09-25T01:53:28.707Z,1012.77
2016-09-25T01:54:28.693Z,1012.74
2016-09-25T01:55:28.783Z,1012.74
2016-09-25T01:56:28.656Z,1012.72
2016-09-25T01:57:28.639Z,1012.7
2016-09-25T01:58:28.624Z,1012.71
2016-09-25T01:59:28.627Z,1012.71
2016-09-25T02:00:28.595Z,1012.69
2016-09-25T02:01:28.575Z,1012.7
2016-09-25T02:02:28.567Z,1012.71
2016-09-25T02:03:28.545Z,1012.67
2016-09-25T02:04:28.525Z,1012.66
2016-09-25T02:05:28.514Z,1012.68
2016-09-25T02:06:28.497Z,1012.61
2016-09-25T02:07:28.573Z,1012.66
2016-09-25T02:08:28.460Z,1012.63
2016-09-25T02:09:28.502Z,1012.6
2016-09-25T02:10:28.433Z,1012.64
2016-09-25T02:11:28.414Z,1012.62
2016-09-25T02:12:28.394Z,1012.61
2016-09-25T02:13:28.383Z,1012.59
2016-09-25T02:14:28.365Z,1012.58
2016-09-25T02:15:28.352Z,1012.58
2016-09-25T02:16:28.330Z,1012.58
2016-09-25T02:17:28.313Z,1012.56
2016-09-25T02:18:28.304Z,1012.5
2016-09-25T02:19:28.381Z,1012.51
2016-09-25T02:20:28.263Z,1012.54
2016-09-25T02:21:28.294Z,1012.48
2016-09-25T02:22:28.233Z,1012.53
2016-09-25T02:23:28.277Z,1012.5
2016-09-25T02:24:28.202Z,1012.52
2016-09-25T02:25:28.182Z,1012.53
2016-09-25T02:26:28.165Z,1012.52
2016-09-25T02:27:28.156Z,1012.49
2016-09-25T02:28:28.136Z,1012.51
2016-09-25T02:29:28.124Z,1012.48
2016-09-25T02:30:28.102Z,1012.5
2016-09-25T02:31:28.096Z,1012.48
2016-09-25T02:32:28.072Z,1012.43
2016-09-25T02:33:28.056Z,1012.43
2016-09-25T02:34:28.045Z,1012.43
2016-09-25T02:35:28.019Z,1012.41
2016-09-25T02:36:28.005Z,1012.37
2016-09-25T02:37:27.991Z,1012.35
2016-09-25T02:38:27.968Z,1012.37
2016-09-25T02:39:27.954Z,1012.34
2016-09-25T02:40:27.937Z,1012.33
2016-09-25T02:41:27.922Z,1012.31
2016-09-25T02:42:27.902Z,1012.34
2016-09-25T02:43:27.888Z,1012.31
2016-09-25T02:44:27.875Z,1012.34
2016-09-25T02:45:27.852Z,1012.32
2016-09-25T02:46:27.845Z,1012.31
2016-09-25T02:47:27.823Z,1012.27
2016-09-25T02:48:27.810Z,1012.26
2016-09-25T02:49:27.794Z,1012.28
2016-09-25T02:50:27.776Z,1012.28
2016-09-25T02:51:27.759Z,1012.27
2016-09-25T02:52:27.740Z,1012.29
2016-09-25T02:53:27.724Z,1012.27
2016-09-25T02:54:27.713Z,1012.26
2016-09-25T02:55:27.695Z,1012.28
2016-09-25T02:56:27.676Z,1012.29
2016-09-25T02:57:27.667Z,1012.27
2016-09-25T02:58:27.641Z,1012.27
2016-09-25T02:59:27.622Z,1012.25
2016-09-25T03:00:27.609Z,1012.27
2016-09-25T03:01:27.592Z,1012.24
2016-09-25T03:02:27.572Z,1012.25
2016-09-25T03:03:27.561Z,1012.24
2016-09-25T03:04:27.543Z,1012.24
2016-09-25T03:05:27.526Z,1012.24
2016-09-25T03:06:27.506Z,1012.26
2016-09-25T03:07:27.492Z,1012.23
2016-09-25T03:08:27.471Z,1012.2
2016-09-25T03:09:27.465Z,1012.2
2016-09-25T03:10:27.446Z,1012.21
2016-09-25T03:11:27.427Z,1012.2
2016-09-25T03:12:27.410Z,1012.2
2016-09-25T03:13:27.394Z,1012.2
2016-09-25T03:14:27.373Z,1012.17
2016-09-25T03:15:27.366Z,1012.14
2016-09-25T03:16:27.343Z,1012.12
2016-09-25T03:17:27.328Z,1012.11
2016-09-25T03:18:27.310Z,1012.12
2016-09-25T03:19:27.295Z,1012.13
2016-09-25T03:20:27.275Z,1012.11
2016-09-25T03:21:27.265Z,1012.06
2016-09-25T03:22:27.241Z,1012.11
2016-09-25T03:23:27.221Z,1012.08
2016-09-25T03:24:27.212Z,1012.07
2016-09-25T03:25:27.195Z,1012.05
2016-09-25T03:26:27.175Z,1012.04
2016-09-25T03:27:27.165Z,1012.03
2016-09-25T03:28:27.139Z,1012
2016-09-25T03:29:27.131Z,1012.01
2016-09-25T03:30:27.110Z,1012
2016-09-25T03:31:27.095Z,1012.01
2016-09-25T03:32:27.075Z,1012.02
2016-09-25T03:33:27.062Z,1012.01
2016-09-25T03:34:27.045Z,1012.05
2016-09-25T03:35:27.025Z,1012.02
2016-09-25T03:36:27.013Z,1012.01
2016-09-25T03:37:26.992Z,1012.01
2016-09-25T03:38:26.975Z,1012.01
2016-09-25T03:39:26.965Z,1011.99
2016-09-25T03:40:26.943Z,1011.99
2016-09-25T03:41:26.924Z,1012.02
2016-09-25T03:42:26.910Z,1011.99
2016-09-25T03:43:26.893Z,1011.98
2016-09-25T03:44:26.878Z,1011.97
2016-09-25T03:45:26.859Z,1011.94
2016-09-25T03:46:26.844Z,1011.95
2016-09-25T03:47:26.825Z,1011.95
2016-09-25T03:48:26.806Z,1011.9
2016-09-25T03:49:26.795Z,1011.92
2016-09-25T03:50:26.770Z,1011.9
2016-09-25T03:51:26.757Z,1011.89
2016-09-25T03:52:26.740Z,1011.88
2016-09-25T03:53:26.725Z,1011.89
2016-09-25T03:54:26.708Z,1011.9
2016-09-25T03:55:26.694Z,1011.88
2016-09-25T03:56:26.674Z,1011.9
2016-09-25T03:57:26.662Z,1011.91
2016-09-25T03:58:26.643Z,1011.88
2016-09-25T03:59:26.621Z,1011.87
2016-09-25T04:00:26.603Z,1011.86
2016-09-25T04:01:26.591Z,1011.86
2016-09-25T04:02:26.573Z,1011.89
2016-09-25T04:03:26.554Z,1011.85
2016-09-25T04:04:26.541Z,1011.84
2016-09-25T04:05:26.518Z,1011.84
2016-09-25T04:06:26.505Z,1011.84
2016-09-25T04:07:26.490Z,1011.84
2016-09-25T04:08:26.474Z,1011.87
2016-09-25T04:09:26.449Z,1011.86
2016-09-25T04:10:26.435Z,1011.88
2016-09-25T04:11:26.425Z,1011.82
2016-09-25T04:12:26.400Z,1011.9
2016-09-25T04:13:26.393Z,1011.85
2016-09-25T04:14:26.371Z,1011.84
2016-09-25T04:15:26.353Z,1011.84
2016-09-25T04:16:26.330Z,1011.81
2016-09-25T04:17:26.323Z,1011.83
2016-09-25T04:18:26.301Z,1011.8
2016-09-25T04:19:26.280Z,1011.82
2016-09-25T04:20:26.266Z,1011.79
2016-09-25T04:21:26.246Z,1011.78
2016-09-25T04:22:26.234Z,1011.81
2016-09-25T04:23:26.213Z,1011.78
2016-09-25T04:24:26.204Z,1011.79
2016-09-25T04:25:26.182Z,1011.79
2016-09-25T04:26:26.164Z,1011.77
2016-09-25T04:27:26.155Z,1011.74
2016-09-25T04:28:26.135Z,1011.75
2016-09-25T04:29:26.113Z,1011.75
2016-09-25T04:30:26.099Z,1011.73
2016-09-25T04:31:26.080Z,1011.75
2016-09-25T04:32:26.068Z,1011.73
2016-09-25T04:33:26.042Z,1011.73
2016-09-25T04:34:26.024Z,1011.73
2016-09-25T04:35:26.011Z,1011.72
2016-09-25T04:36:25.992Z,1011.71
2016-09-25T04:37:25.975Z,1011.67
2016-09-25T04:38:25.960Z,1011.7
2016-09-25T04:39:25.946Z,1011.67
2016-09-25T04:40:25.925Z,1011.65
2016-09-25T04:41:25.915Z,1011.65
2016-09-25T04:42:25.906Z,1011.66
2016-09-25T04:43:25.872Z,1011.65
2016-09-25T04:44:25.861Z,1011.68
2016-09-25T04:45:25.841Z,1011.65
2016-09-25T04:46:25.825Z,1011.67
2016-09-25T04:47:25.806Z,1011.68
2016-09-25T04:48:25.791Z,1011.66
2016-09-25T04:49:25.771Z,1011.67
2016-09-25T04:50:25.756Z,1011.63
2016-09-25T04:51:25.741Z,1011.65
2016-09-25T04:52:25.726Z,1011.63
2016-09-25T04:53:25.704Z,1011.64
2016-09-25T04:54:25.685Z,1011.64
2016-09-25T04:55:25.673Z,1011.62
2016-09-25T04:56:25.656Z,1011.6
2016-09-25T04:57:25.634Z,1011.6
2016-09-25T04:58:25.616Z,1011.64
2016-09-25T04:59:25.602Z,1011.61
2016-09-25T05:00:25.590Z,1011.59
2016-09-25T05:01:25.563Z,1011.59
2016-09-25T05:02:25.555Z,1011.57
2016-09-25T05:03:25.535Z,1011.57
2016-09-25T05:04:25.517Z,1011.56
2016-09-25T05:05:25.499Z,1011.54
2016-09-25T05:06:25.484Z,1011.56
2016-09-25T05:07:25.459Z,1011.56
2016-09-25T05:08:25.446Z,1011.55
2016-09-25T05:09:25.430Z,1011.56
2016-09-25T05:10:25.414Z,1011.53
2016-09-25T05:11:25.394Z,1011.59
2016-09-25T05:12:25.380Z,1011.57
2016-09-25T05:13:25.366Z,1011.58
2016-09-25T05:14:25.340Z,1011.58
2016-09-25T05:15:25.326Z,1011.59
2016-09-25T05:16:25.310Z,1011.59
2016-09-25T05:17:25.296Z,1011.59
2016-09-25T05:18:25.272Z,1011.54
2016-09-25T05:19:25.259Z,1011.55
2016-09-25T05:20:25.240Z,1011.55
2016-09-25T05:21:25.224Z,1011.52
2016-09-25T05:22:25.206Z,1011.51
2016-09-25T05:23:25.187Z,1011.52
2016-09-25T05:24:25.171Z,1011.49
2016-09-25T05:25:25.153Z,1011.52
2016-09-25T05:26:25.133Z,1011.48
2016-09-25T05:27:25.118Z,1011.51
2016-09-25T05:28:25.100Z,1011.49
2016-09-25T05:29:25.087Z,1011.47
2016-09-25T05:30:25.071Z,1011.47
2016-09-25T05:31:25.049Z,1011.46
2016-09-25T05:32:25.034Z,1011.5
2016-09-25T05:33:25.016Z,1011.5
2016-09-25T05:34:25.005Z,1011.52
2016-09-25T05:35:24.980Z,1011.5
2016-09-25T05:36:25.013Z,1011.52
2016-09-25T05:37:24.946Z,1011.52
2016-09-25T05:38:25.005Z,1011.49
2016-09-25T05:39:24.911Z,1011.53
2016-09-25T05:40:24.947Z,1011.48
2016-09-25T05:41:24.876Z,1011.46
2016-09-25T05:42:24.956Z,1011.45
2016-09-25T05:43:24.840Z,1011.45
2016-09-25T05:44:24.828Z,1011.46
2016-09-25T05:45:24.805Z,1011.46
2016-09-25T05:46:24.886Z,1011.45
2016-09-25T05:47:24.772Z,1011.44
2016-09-25T05:48:24.755Z,1011.41
2016-09-25T05:49:24.736Z,1011.43
2016-09-25T05:50:24.718Z,1011.4
2016-09-25T05:51:24.704Z,1011.37
2016-09-25T05:52:24.781Z,1011.37
2016-09-25T05:53:24.667Z,1011.35
2016-09-25T05:54:24.751Z,1011.38
2016-09-25T05:55:24.631Z,1011.37
2016-09-25T05:56:24.714Z,1011.36
2016-09-25T05:57:24.597Z,1011.4
2016-09-25T05:58:24.591Z,1011.35
2016-09-25T05:59:24.558Z,1011.36
2016-09-25T06:00:24.544Z,1011.36
2016-09-25T06:01:24.528Z,1011.42
2016-09-25T06:02:24.516Z,1011.37
2016-09-25T06:03:24.493Z,1011.39
2016-09-25T06:04:24.526Z,1011.39
2016-09-25T06:05:24.459Z,1011.39
2016-09-25T06:06:24.492Z,1011.39
2016-09-25T06:07:24.428Z,1011.42
2016-09-25T06:08:24.454Z,1011.43
2016-09-25T06:09:24.392Z,1011.43
2016-09-25T06:10:24.372Z,1011.41
2016-09-25T06:11:24.354Z,1011.38
2016-09-25T06:12:24.384Z,1011.42
2016-09-25T06:13:24.324Z,1011.4
2016-09-25T06:14:24.303Z,1011.39
2016-09-25T06:15:24.284Z,1011.42
2016-09-25T06:16:24.266Z,1011.39
2016-09-25T06:17:24.250Z,1011.4
2016-09-25T06:18:24.233Z,1011.37
2016-09-25T06:19:24.218Z,1011.37
2016-09-25T06:20:24.193Z,1011.37
2016-09-25T06:21:24.180Z,1011.4
2016-09-25T06:22:24.168Z,1011.37
2016-09-25T06:23:24.144Z,1011.36
2016-09-25T06:24:24.124Z,1011.41
2016-09-25T06:25:24.116Z,1011.37
2016-09-25T06:26:24.097Z,1011.36
2016-09-25T06:27:24.077Z,1011.38
2016-09-25T06:28:24.060Z,1011.36
2016-09-25T06:29:24.045Z,1011.31
2016-09-25T06:30:24.024Z,1011.33
2016-09-25T06:31:24.005Z,1011.36
2016-09-25T06:32:23.998Z,1011.37
2016-09-25T06:33:23.972Z,1011.4
2016-09-25T06:34:23.955Z,1011.39
2016-09-25T06:35:23.935Z,1011.5
2016-09-25T06:36:23.924Z,1011.53
2016-09-25T06:37:23.908Z,1011.57
2016-09-25T06:38:23.887Z,1011.56
2016-09-25T06:39:23.869Z,1011.59
2016-09-25T06:40:23.851Z,1011.58
2016-09-25T06:41:23.836Z,1011.54
2016-09-25T06:42:23.828Z,1011.53
2016-09-25T06:43:23.805Z,1011.56
2016-09-25T06:44:23.793Z,1011.58
2016-09-25T06:45:23.777Z,1011.59
2016-09-25T06:46:23.764Z,1011.56
2016-09-25T06:47:23.746Z,1011.52
2016-09-25T06:48:23.739Z,1011.51
2016-09-25T06:49:23.719Z,1011.5
2016-09-25T06:50:23.713Z,1011.48
2016-09-25T06:51:23.687Z,1011.45
2016-09-25T06:52:23.674Z,1011.41
2016-09-25T06:53:23.665Z,1011.46
2016-09-25T06:54:23.646Z,1011.48
2016-09-25T06:55:23.636Z,1011.42
2016-09-25T06:56:23.627Z,1011.42
2016-09-25T06:57:23.615Z,1011.45
2016-09-25T06:58:23.603Z,1011.49
2016-09-25T06:59:23.589Z,1011.43
2016-09-25T07:00:23.576Z,1011.47
2016-09-25T07:01:23.569Z,1011.5
2016-09-25T07:02:23.556Z,1011.52
2016-09-25T07:03:23.539Z,1011.53
2016-09-25T07:04:23.527Z,1011.52
2016-09-25T07:05:23.519Z,1011.5
2016-09-25T07:06:23.498Z,1011.5
2016-09-25T07:07:23.493Z,1011.51
2016-09-25T07:08:23.476Z,1011.55
2016-09-25T07:09:23.464Z,1011.5
2016-09-25T07:10:23.454Z,1011.53
2016-09-25T07:11:23.446Z,1011.54
2016-09-25T07:12:23.436Z,1011.57
2016-09-25T07:13:23.420Z,1011.59
2016-09-25T07:14:23.409Z,1011.54
2016-09-25T07:15:23.400Z,1011.58
2016-09-25T07:16:23.385Z,1011.55
2016-09-25T07:17:23.370Z,1011.6
2016-09-25T07:18:23.369Z,1011.59
2016-09-25T07:19:23.354Z,1011.64
2016-09-25T07:20:23.337Z,1011.7
2016-09-25T07:21:23.329Z,1011.68
2016-09-25T07:22:23.313Z,1011.71
2016-09-25T07:23:23.309Z,1011.74
2016-09-25T07:24:23.299Z,1011.78
2016-09-25T07:25:23.278Z,1011.76
2016-09-25T07:26:23.276Z,1011.75
2016-09-25T07:27:23.259Z,1011.75
2016-09-25T07:28:23.248Z,1011.77
2016-09-25T07:29:23.236Z,1011.77
2016-09-25T07:30:23.228Z,1011.72
2016-09-25T07:31:23.220Z,1011.74
2016-09-25T07:32:23.210Z,1011.76
2016-09-25T07:33:23.201Z,1011.79
2016-09-25T07:34:23.189Z,1011.81
2016-09-25T07:35:23.181Z,1011.73
2016-09-25T07:36:23.170Z,1011.78
2016-09-25T07:37:23.157Z,1011.79
2016-09-25T07:38:23.150Z,1011.79
2016-09-25T07:39:23.169Z,1011.79
2016-09-25T07:40:23.131Z,1011.78
2016-09-25T07:41:23.128Z,1011.76
2016-09-25T07:42:23.116Z,1011.75
2016-09-25T07:43:23.159Z,1011.69
2016-09-25T07:44:23.108Z,1011.7
2016-09-25T07:45:23.097Z,1011.69
2016-09-25T07:46:23.086Z,1011.69
2016-09-25T07:47:23.089Z,1011.63
2016-09-25T07:48:23.077Z,1011.68
2016-09-25T07:49:23.066Z,1011.75
2016-09-25T07:50:23.062Z,1011.72
2016-09-25T07:51:23.060Z,1011.7
2016-09-25T07:52:23.061Z,1011.75
2016-09-25T07:53:23.039Z,1011.73
2016-09-25T07:54:23.036Z,1011.67
2016-09-25T07:55:23.026Z,1011.71
2016-09-25T07:56:23.029Z,1011.72
2016-09-25T07:57:23.029Z,1011.78
2016-09-25T07:58:23.013Z,1011.78
2016-09-25T07:59:23.014Z,1011.74
2016-09-25T08:00:23.007Z,1011.76
2016-09-25T08:01:23.006Z,1011.81
2016-09-25T08:02:22.994Z,1011.82
2016-09-25T08:03:22.997Z,1011.82
2016-09-25T08:04:22.990Z,1011.79
2016-09-25T08:05:22.985Z,1011.77
2016-09-25T08:06:22.983Z,1011.81
2016-09-25T08:07:22.979Z,1011.7
2016-09-25T08:08:22.983Z,1011.65
2016-09-25T08:09:22.967Z,1011.69
2016-09-25T08:10:23.037Z,1011.68
2016-09-25T08:11:22.965Z,1011.67
2016-09-25T08:12:22.966Z,1011.64
2016-09-25T08:13:22.958Z,1011.64
2016-09-25T08:14:23.000Z,1011.64
2016-09-25T08:15:22.944Z,1011.64
2016-09-25T08:16:22.946Z,1011.65
2016-09-25T08:17:22.945Z,1011.61
2016-09-25T08:18:22.937Z,1011.58
2016-09-25T08:19:22.936Z,1011.57
2016-09-25T08:20:22.932Z,1011.53
2016-09-25T08:21:22.935Z,1011.52
2016-09-25T08:22:22.930Z,1011.46
2016-09-25T08:23:22.936Z,1011.52
2016-09-25T08:24:22.927Z,1011.48
2016-09-25T08:25:22.926Z,1011.42
2016-09-25T08:26:22.919Z,1011.45
2016-09-25T08:27:22.917Z,1011.46
2016-09-25T08:28:22.917Z,1011.42
2016-09-25T08:29:22.915Z,1011.4
2016-09-25T08:30:22.912Z,1011.42
2016-09-25T08:31:22.910Z,1011.41
2016-09-25T08:32:22.913Z,1011.41
2016-09-25T08:33:22.904Z,1011.41
2016-09-25T08:34:22.905Z,1011.4
2016-09-25T08:35:22.906Z,1011.36
2016-09-25T08:36:22.905Z,1011.4
2016-09-25T08:37:22.897Z,1011.32
2016-09-25T08:38:22.898Z,1011.34
2016-09-25T08:39:22.908Z,1011.27
2016-09-25T08:40:22.897Z,1011.29
2016-09-25T08:41:22.896Z,1011.31
2016-09-25T08:42:22.886Z,1011.31
2016-09-25T08:43:22.887Z,1011.31
2016-09-25T08:44:22.882Z,1011.3
2016-09-25T08:45:22.881Z,1011.28
2016-09-25T08:46:22.879Z,1011.29
2016-09-25T08:47:22.884Z,1011.3
2016-09-25T08:48:22.880Z,1011.23
2016-09-25T08:49:22.876Z,1011.24
2016-09-25T08:50:22.876Z,1011.21
2016-09-25T08:51:22.884Z,1011.24
2016-09-25T08:52:22.884Z,1011.2
2016-09-25T08:53:22.881Z,1011.22
2016-09-25T08:54:22.869Z,1011.19
2016-09-25T08:55:22.870Z,1011.2
2016-09-25T08:56:22.860Z,1011.17
2016-09-25T08:57:22.865Z,1011.2
2016-09-25T08:58:22.859Z,1011.15
2016-09-25T08:59:22.854Z,1011.13
2016-09-25T09:00:22.856Z,1011.13
2016-09-25T09:01:22.857Z,1011.12
2016-09-25T09:02:22.859Z,1011.12
2016-09-25T09:03:22.848Z,1011.16
2016-09-25T09:04:22.856Z,1011.06
2016-09-25T09:05:22.845Z,1011.09
2016-09-25T09:06:22.846Z,1011.06
2016-09-25T09:07:22.840Z,1011.08
2016-09-25T09:08:22.841Z,1011.09
2016-09-25T09:09:22.835Z,1011.08
2016-09-25T09:10:22.835Z,1011.06
2016-09-25T09:11:22.844Z,1011.02
2016-09-25T09:12:22.836Z,1011.04
2016-09-25T09:13:22.833Z,1011.03
2016-09-25T09:14:22.830Z,1011.04
2016-09-25T09:15:22.825Z,1011.03
2016-09-25T09:16:22.835Z,1011.03
2016-09-25T09:17:22.830Z,1011.06
2016-09-25T09:18:22.826Z,1011.11
2016-09-25T09:19:22.823Z,1011.06
2016-09-25T09:20:22.869Z,1011.07
2016-09-25T09:21:22.816Z,1011.04
2016-09-25T09:22:22.816Z,1011.06
2016-09-25T09:23:22.816Z,1011.06
2016-09-25T09:24:22.819Z,1011.04
2016-09-25T09:25:22.819Z,1011.01
2016-09-25T09:26:22.810Z,1011.03
2016-09-25T09:27:22.810Z,1011.02
2016-09-25T09:28:22.809Z,1011.01
2016-09-25T09:29:22.809Z,1010.99
2016-09-25T09:30:22.810Z,1010.98
2016-09-25T09:31:22.813Z,1010.94
2016-09-25T09:32:22.812Z,1010.94
2016-09-25T09:33:22.815Z,1010.98
2016-09-25T09:34:22.806Z,1011.01
2016-09-25T09:35:22.803Z,1010.89
2016-09-25T09:36:22.810Z,1010.91
2016-09-25T09:37:22.799Z,1010.9
2016-09-25T09:38:22.797Z,1010.89
2016-09-25T09:39:22.840Z,1010.93
2016-09-25T09:40:22.789Z,1010.86
2016-09-25T09:41:22.784Z,1010.86
2016-09-25T09:42:22.784Z,1010.84
2016-09-25T09:43:22.785Z,1010.83
2016-09-25T09:44:22.802Z,1010.81
2016-09-25T09:45:22.776Z,1010.84
2016-09-25T09:46:22.772Z,1010.82
2016-09-25T09:47:22.777Z,1010.81
2016-09-25T09:48:22.786Z,1010.8
2016-09-25T09:49:22.766Z,1010.81
2016-09-25T09:50:22.765Z,1010.73
2016-09-25T09:51:22.758Z,1010.81
2016-09-25T09:52:22.758Z,1010.76
2016-09-25T09:53:22.756Z,1010.75
2016-09-25T09:54:22.757Z,1010.73
2016-09-25T09:55:22.749Z,1010.74
2016-09-25T09:56:22.746Z,1010.75
2016-09-25T09:57:22.741Z,1010.7
2016-09-25T09:58:22.742Z,1010.7
2016-09-25T09:59:22.740Z,1010.73
2016-09-25T10:00:22.740Z,1010.74
2016-09-25T10:01:22.737Z,1010.71
2016-09-25T10:02:22.739Z,1010.72
2016-09-25T10:03:22.730Z,1010.71
2016-09-25T10:04:22.727Z,1010.69
2016-09-25T10:05:22.724Z,1010.7
2016-09-25T10:06:22.730Z,1010.67
2016-09-25T10:07:22.717Z,1010.63
2016-09-25T10:08:22.774Z,1010.7
2016-09-25T10:09:22.719Z,1010.68
2016-09-25T10:10:22.708Z,1010.7
2016-09-25T10:11:22.706Z,1010.63
2016-09-25T10:12:22.697Z,1010.66
2016-09-25T10:13:22.698Z,1010.61
2016-09-25T10:14:22.691Z,1010.57
2016-09-25T10:15:22.685Z,1010.62
2016-09-25T10:16:22.693Z,1010.58
2016-09-25T10:17:22.681Z,1010.58
2016-09-25T10:18:22.680Z,1010.56
2016-09-25T10:19:22.676Z,1010.58
2016-09-25T10:20:22.676Z,1010.52
2016-09-25T10:21:22.668Z,1010.53
2016-09-25T10:22:22.669Z,1010.48
2016-09-25T10:23:22.656Z,1010.53
2016-09-25T10:24:22.659Z,1010.5
2016-09-25T10:25:22.658Z,1010.51
2016-09-25T10:26:22.645Z,1010.51
2016-09-25T10:27:22.651Z,1010.48
2016-09-25T10:28:22.634Z,1010.46
2016-09-25T10:29:22.628Z,1010.49
2016-09-25T10:30:22.628Z,1010.48
2016-09-25T10:31:22.624Z,1010.43
2016-09-25T10:32:22.615Z,1010.44
2016-09-25T10:33:22.619Z,1010.46
2016-09-25T10:34:22.607Z,1010.44
2016-09-25T10:35:22.626Z,1010.45
2016-09-25T10:36:22.595Z,1010.46
2016-09-25T10:37:22.645Z,1010.43
2016-09-25T10:38:22.585Z,1010.42
2016-09-25T10:39:22.684Z,1010.4
2016-09-25T10:40:22.585Z,1010.43
2016-09-25T10:41:22.576Z,1010.37
2016-09-25T10:42:22.579Z,1010.38
2016-09-25T10:43:22.570Z,1010.38
2016-09-25T10:44:22.563Z,1010.35
2016-09-25T10:45:22.604Z,1010.32
2016-09-25T10:46:22.555Z,1010.32
2016-09-25T10:47:22.547Z,1010.35
2016-09-25T10:48:22.546Z,1010.35
2016-09-25T10:49:22.536Z,1010.32
2016-09-25T10:50:22.537Z,1010.26
2016-09-25T10:51:22.535Z,1010.26
2016-09-25T10:52:22.522Z,1010.3
2016-09-25T10:53:22.528Z,1010.29
2016-09-25T10:54:22.516Z,1010.29
2016-09-25T10:55:22.515Z,1010.28
2016-09-25T10:56:22.515Z,1010.31
2016-09-25T10:57:22.504Z,1010.22
2016-09-25T10:58:22.500Z,1010.25
2016-09-25T10:59:22.497Z,1010.22
2016-09-25T11:00:22.495Z,1010.22
2016-09-25T11:01:22.489Z,1010.21
2016-09-25T11:02:22.481Z,1010.18
2016-09-25T11:03:22.477Z,1010.18
2016-09-25T11:04:22.473Z,1010.13
2016-09-25T11:05:22.516Z,1010.14
2016-09-25T11:06:22.504Z,1010.15
2016-09-25T11:07:22.457Z,1010.13
2016-09-25T11:08:22.459Z,1010.13
2016-09-25T11:09:22.448Z,1010.11
2016-09-25T11:10:22.546Z,1010.13
2016-09-25T11:11:22.435Z,1010.07
2016-09-25T11:12:22.435Z,1010.09
2016-09-25T11:13:22.428Z,1010.11
2016-09-25T11:14:22.467Z,1010.07
2016-09-25T11:15:22.420Z,1010.08
2016-09-25T11:16:22.408Z,1010.09
2016-09-25T11:17:22.401Z,1010.1
2016-09-25T11:18:22.396Z,1010.07
2016-09-25T11:19:22.387Z,1010.06
2016-09-25T11:20:22.396Z,1010.08
2016-09-25T11:21:22.376Z,1010.06
2016-09-25T11:22:22.376Z,1010.05
2016-09-25T11:23:22.364Z,1010
2016-09-25T11:24:22.355Z,1010.03
2016-09-25T11:25:22.353Z,1010.03
2016-09-25T11:26:22.349Z,1009.99
2016-09-25T11:27:22.336Z,1009.99
2016-09-25T11:28:22.331Z,1009.95
2016-09-25T11:29:22.329Z,1009.94
2016-09-25T11:30:22.321Z,1009.96
2016-09-25T11:31:22.313Z,1009.94
2016-09-25T11:32:22.316Z,1009.93
2016-09-25T11:33:22.319Z,1009.86
2016-09-25T11:34:22.294Z,1009.91
2016-09-25T11:35:22.292Z,1009.83
2016-09-25T11:36:22.287Z,1009.85
2016-09-25T11:37:22.274Z,1009.85
2016-09-25T11:38:22.275Z,1009.8
2016-09-25T11:39:22.270Z,1009.77
2016-09-25T11:40:22.273Z,1009.77
2016-09-25T11:41:22.261Z,1009.76
2016-09-25T11:42:22.252Z,1009.8
2016-09-25T11:43:22.250Z,1009.74
2016-09-25T11:44:22.248Z,1009.73
2016-09-25T11:45:22.237Z,1009.74
2016-09-25T11:46:22.234Z,1009.76
2016-09-25T11:47:22.225Z,1009.75
2016-09-25T11:48:22.216Z,1009.72
2016-09-25T11:49:22.219Z,1009.75
2016-09-25T11:50:22.211Z,1009.73
2016-09-25T11:51:22.202Z,1009.67
2016-09-25T11:52:22.197Z,1009.72
2016-09-25T11:53:22.194Z,1009.7
2016-09-25T11:54:22.199Z,1009.73
2016-09-25T11:55:22.188Z,1009.68
2016-09-25T11:56:22.183Z,1009.69
2016-09-25T11:57:22.175Z,1009.68
2016-09-25T11:58:22.169Z,1009.7
2016-09-25T11:59:22.166Z,1009.64
2016-09-25T12:00:22.168Z,1009.62
2016-09-25T12:01:22.156Z,1009.68
2016-09-25T12:02:22.149Z,1009.7
2016-09-25T12:03:22.144Z,1009.66
2016-09-25T12:04:22.143Z,1009.66
2016-09-25T12:05:22.135Z,1009.6
2016-09-25T12:06:22.131Z,1009.61
2016-09-25T12:07:22.130Z,1009.61
2016-09-25T12:08:22.125Z,1009.61